createdAt,value
2022-12-15T00:02:18.294Z,32.03
2022-12-15T00:05:03.502Z,32.63
2022-12-15T00:07:48.650Z,29.40
2022-12-15T00:10:33.962Z,30.47
2022-12-15T00:13:19.998Z,26.10
2022-12-15T00:16:06.426Z,29.97
2022-12-15T00:18:51.847Z,28.27
2022-12-15T00:21:37.092Z,29.40
2022-12-15T00:24:22.399Z,28.90
2022-12-15T00:27:07.841Z,30.53
2022-12-15T00:29:55.182Z,29.47
2022-12-15T00:32:48.057Z,27.13
2022-12-15T00:35:39.044Z,28.90
2022-12-15T00:38:27.094Z,36.53
2022-12-15T00:40:58.886Z,27.47
2022-12-15T00:43:27.024Z,27.40
2022-12-15T00:46:12.929Z,28.17
2022-12-15T00:48:42.228Z,28.67
2022-12-15T00:51:09.043Z,29.43
2022-12-15T00:53:54.294Z,28.30
2022-12-15T00:56:39.759Z,27.47
2022-12-15T00:59:26.863Z,28.93
2022-12-15T01:02:12.306Z,29.67
2022-12-15T01:04:59.090Z,32.03
2022-12-15T01:07:44.390Z,29.57
2022-12-15T01:10:34.647Z,23.57
2022-12-15T01:13:20.045Z,27.10
2022-12-15T01:16:05.144Z,28.57
2022-12-15T01:18:51.890Z,25.77
2022-12-15T01:21:24.697Z,28.60
2022-12-15T01:23:53.390Z,27.40
2022-12-15T01:26:21.153Z,27.23
2022-12-15T01:28:48.829Z,28.43
2022-12-15T01:31:16.599Z,28.07
2022-12-15T01:33:44.419Z,25.27
2022-12-15T01:36:12.419Z,28.00
2022-12-15T01:38:41.543Z,28.07
2022-12-15T01:41:09.684Z,26.40
2022-12-15T01:46:13.034Z,25.27
2022-12-15T01:48:44.034Z,25.57
2022-12-15T01:51:14.991Z,23.00
2022-12-15T01:53:46.476Z,26.13
2022-12-15T01:56:18.070Z,27.90
2022-12-15T01:58:46.256Z,28.33
2022-12-15T02:01:13.968Z,25.13
2022-12-15T02:03:41.877Z,26.80
2022-12-15T02:06:09.675Z,28.17
2022-12-15T02:08:37.453Z,24.30
2022-12-15T02:11:33.860Z,26.43
2022-12-15T02:14:02.859Z,27.77
2022-12-15T02:16:38.488Z,27.37
2022-12-15T02:19:13.080Z,25.10
2022-12-15T02:21:42.407Z,24.93
2022-12-15T02:24:27.296Z,27.33
2022-12-15T02:27:25.504Z,23.13
2022-12-15T02:30:11.743Z,26.97
2022-12-15T02:32:41.872Z,26.10
2022-12-15T02:35:11.769Z,27.33
2022-12-15T02:37:40.085Z,23.77
2022-12-15T02:40:09.948Z,24.30
2022-12-15T02:42:39.836Z,27.53
2022-12-15T02:45:10.499Z,23.67
2022-12-15T02:47:39.622Z,24.20
2022-12-15T02:50:29.829Z,25.53
2022-12-15T02:53:03.797Z,26.17
2022-12-15T02:55:36.372Z,25.13
2022-12-15T02:58:06.518Z,22.73
2022-12-15T03:00:38.016Z,28.90
2022-12-15T03:03:05.944Z,28.67
2022-12-15T03:05:33.662Z,29.50
2022-12-15T03:08:02.284Z,38.07
2022-12-15T03:10:30.652Z,34.80
2022-12-15T03:12:58.848Z,32.90
2022-12-15T03:15:30.451Z,27.03
2022-12-15T03:18:04.215Z,32.37
2022-12-15T03:20:32.102Z,28.17
2022-12-15T03:22:59.747Z,33.90
2022-12-15T03:25:27.575Z,24.50
2022-12-15T03:27:55.245Z,33.37
2022-12-15T03:30:24.517Z,25.33
2022-12-15T03:32:52.222Z,30.53
2022-12-15T03:35:21.427Z,29.23
2022-12-15T03:37:49.699Z,28.90
2022-12-15T03:40:17.768Z,32.70
2022-12-15T03:42:51.482Z,36.60
2022-12-15T03:45:20.030Z,32.03
2022-12-15T03:47:47.721Z,29.23
2022-12-15T03:50:16.450Z,30.60
2022-12-15T03:52:45.444Z,28.20
2022-12-15T03:55:13.287Z,30.87
2022-12-15T03:57:42.085Z,27.97
2022-12-15T04:00:11.925Z,26.87
2022-12-15T04:02:39.715Z,28.37
2022-12-15T04:05:08.500Z,28.60
2022-12-15T04:07:36.210Z,29.33
2022-12-15T04:10:06.040Z,31.70
2022-12-15T04:12:33.768Z,27.67
2022-12-15T04:15:01.440Z,30.20
2022-12-15T04:17:29.178Z,30.57
2022-12-15T04:20:12.043Z,26.93
2022-12-15T04:22:40.317Z,29.43
2022-12-15T04:25:28.321Z,29.67
2022-12-15T04:28:13.638Z,29.60
2022-12-15T04:30:59.861Z,27.77
2022-12-15T04:33:45.410Z,28.40
2022-12-15T04:36:30.579Z,32.07
2022-12-15T04:39:16.047Z,31.57
2022-12-15T04:42:03.593Z,30.10
2022-12-15T04:44:50.086Z,28.50
2022-12-15T04:47:36.087Z,32.30
2022-12-15T04:50:21.275Z,30.37
2022-12-15T04:53:06.739Z,29.50
2022-12-15T04:55:54.064Z,28.47
2022-12-15T04:58:40.746Z,29.27
2022-12-15T05:01:25.916Z,32.70
2022-12-15T05:04:11.138Z,29.10
2022-12-15T05:06:56.413Z,28.33
2022-12-15T05:09:41.873Z,30.73
2022-12-15T05:12:27.029Z,38.20
2022-12-15T05:15:13.742Z,25.90
2022-12-15T05:17:59.334Z,29.00
2022-12-15T05:20:44.816Z,31.40
2022-12-15T05:23:30.627Z,28.87
2022-12-15T05:26:18.126Z,28.53
2022-12-15T05:29:03.505Z,28.90
2022-12-15T05:31:50.117Z,30.37
2022-12-15T05:34:17.781Z,28.67
2022-12-15T05:36:45.601Z,26.53
2022-12-15T05:39:13.265Z,28.57
2022-12-15T05:41:41.112Z,27.33
2022-12-15T05:44:09.137Z,27.00
2022-12-15T05:46:38.379Z,27.73
2022-12-15T05:49:06.411Z,27.20
2022-12-15T05:51:34.103Z,33.53
2022-12-15T05:54:01.914Z,31.07
2022-12-15T05:56:30.105Z,29.13
2022-12-15T05:58:58.211Z,30.47
2022-12-15T06:01:28.603Z,29.57
2022-12-15T06:03:58.808Z,27.10
2022-12-15T06:06:26.781Z,29.43
2022-12-15T06:08:54.620Z,30.67
2022-12-15T06:11:22.676Z,31.33
2022-12-15T06:13:50.604Z,31.17
2022-12-15T06:16:19.190Z,28.33
2022-12-15T06:18:50.236Z,28.40
2022-12-15T06:21:20.152Z,31.10
2022-12-15T06:23:48.252Z,30.23
2022-12-15T06:26:16.871Z,28.70
2022-12-15T06:28:44.644Z,33.60
2022-12-15T06:31:12.793Z,28.00
2022-12-15T06:33:40.739Z,28.90
2022-12-15T06:36:09.858Z,30.43
2022-12-15T06:38:39.016Z,29.70
2022-12-15T06:41:07.788Z,31.30
2022-12-15T06:43:35.630Z,30.20
2022-12-15T06:46:03.426Z,30.43
2022-12-15T06:48:31.289Z,31.40
2022-12-15T06:51:03.615Z,32.03
2022-12-15T06:53:31.819Z,25.53
2022-12-15T06:56:02.481Z,29.47
2022-12-15T06:58:30.487Z,33.47
2022-12-15T07:00:58.114Z,28.83
2022-12-15T07:03:26.095Z,27.53
2022-12-15T07:06:04.410Z,30.30
2022-12-15T07:08:37.913Z,35.17
2022-12-15T07:11:12.829Z,33.63
2022-12-15T07:13:40.897Z,30.07
2022-12-15T07:16:21.321Z,31.60
2022-12-15T07:18:49.255Z,31.23
2022-12-15T07:21:17.101Z,30.50
2022-12-15T07:24:00.937Z,37.27
2022-12-15T07:26:31.813Z,40.30
2022-12-15T07:28:59.774Z,29.40
2022-12-15T07:31:27.666Z,29.87
2022-12-15T07:33:55.451Z,30.70
2022-12-15T07:36:23.493Z,31.10
2022-12-15T07:38:51.869Z,26.17
2022-12-15T07:41:19.987Z,29.47
2022-12-15T07:43:49.332Z,30.87
2022-12-15T07:46:17.323Z,32.37
2022-12-15T07:48:50.325Z,31.80
2022-12-15T07:51:20.899Z,28.30
2022-12-15T07:53:50.297Z,35.07
2022-12-15T07:56:18.367Z,38.70
2022-12-15T07:58:46.431Z,35.87
2022-12-15T08:01:15.891Z,32.53
2022-12-15T08:03:47.356Z,32.63
2022-12-15T08:06:15.814Z,30.73
2022-12-15T08:08:44.839Z,35.27
2022-12-15T08:11:18.062Z,33.40
2022-12-15T08:14:03.474Z,28.10
2022-12-15T08:16:34.648Z,22.80
2022-12-15T08:19:03.066Z,30.40
2022-12-15T08:21:31.818Z,24.10
2022-12-15T08:24:00.975Z,33.40
2022-12-15T08:26:31.105Z,26.40
2022-12-15T08:29:24.423Z,25.80
2022-12-15T08:31:52.346Z,22.50
2022-12-15T08:34:20.320Z,28.57
2022-12-15T08:36:48.518Z,33.20
2022-12-15T08:39:16.665Z,31.90
2022-12-15T08:41:44.770Z,33.20
2022-12-15T08:44:12.778Z,30.23
2022-12-15T08:46:40.894Z,26.73
2022-12-15T08:49:15.252Z,28.40
2022-12-15T08:51:46.237Z,24.17
2022-12-15T08:54:17.929Z,30.70
2022-12-15T08:56:45.876Z,22.90
2022-12-15T08:59:13.607Z,26.50
2022-12-15T09:01:41.672Z,25.60
2022-12-15T09:04:10.902Z,28.97
2022-12-15T09:06:38.678Z,25.60
2022-12-15T09:09:08.328Z,27.57
2022-12-15T09:11:36.087Z,30.93
2022-12-15T09:14:04.410Z,23.93
2022-12-15T09:16:32.294Z,27.13
2022-12-15T09:19:00.350Z,27.33
2022-12-15T09:21:31.160Z,27.83
2022-12-15T09:24:00.744Z,25.47
2022-12-15T09:26:29.478Z,26.60
2022-12-15T09:28:57.403Z,28.13
2022-12-15T09:31:26.202Z,26.23
2022-12-15T09:33:54.377Z,28.30
2022-12-15T09:36:22.552Z,30.17
2022-12-15T09:38:51.783Z,29.73
2022-12-15T09:41:22.578Z,26.63
2022-12-15T09:43:54.694Z,25.80
2022-12-15T09:46:27.625Z,29.83
2022-12-15T09:48:55.887Z,26.10
2022-12-15T09:51:27.404Z,30.10
2022-12-15T09:53:57.305Z,28.17
2022-12-15T09:56:35.383Z,25.50
2022-12-15T09:59:06.531Z,28.23
2022-12-15T10:01:37.868Z,30.50
2022-12-15T10:04:07.375Z,27.83
2022-12-15T10:06:35.851Z,26.67
2022-12-15T10:09:10.631Z,27.90
2022-12-15T10:11:44.766Z,30.03
2022-12-15T10:14:22.924Z,26.77
2022-12-15T10:16:58.488Z,28.93
2022-12-15T10:19:30.613Z,29.87
2022-12-15T10:22:04.274Z,28.53
2022-12-15T10:27:37.600Z,28.23
2022-12-15T10:30:07.371Z,32.73
2022-12-15T10:32:44.434Z,30.77
2022-12-15T10:35:20.223Z,30.47
2022-12-15T10:37:48.109Z,27.43
2022-12-15T10:40:21.697Z,27.80
2022-12-15T10:42:50.892Z,27.50
2022-12-15T10:45:33.365Z,30.60
2022-12-15T10:48:02.645Z,29.60
2022-12-15T10:50:30.862Z,27.67
2022-12-15T10:52:58.889Z,32.97
2022-12-15T10:55:33.425Z,26.07
2022-12-15T10:58:02.636Z,28.70
2022-12-15T11:00:31.170Z,32.15
2022-12-15T11:02:59.337Z,29.20
2022-12-15T11:05:27.451Z,28.13
2022-12-15T11:07:56.238Z,27.33
2022-12-15T11:10:26.036Z,26.73
2022-12-15T11:13:00.269Z,30.58
2022-12-15T11:15:50.558Z,29.23
2022-12-15T11:18:36.713Z,28.98
2022-12-15T11:21:06.990Z,27.88
2022-12-15T11:24:00.296Z,28.02
2022-12-15T11:26:46.855Z,27.17
2022-12-15T11:29:25.034Z,28.02
2022-12-15T11:31:53.479Z,29.10
2022-12-15T11:34:25.214Z,30.38
2022-12-15T11:37:03.998Z,29.83
2022-12-15T11:39:39.438Z,30.48
2022-12-15T11:42:09.061Z,27.95
2022-12-15T11:44:41.025Z,28.90
2022-12-15T11:47:13.334Z,33.60
2022-12-15T11:50:07.942Z,31.60
2022-12-15T11:52:45.077Z,33.15
2022-12-15T11:55:17.392Z,30.42
2022-12-15T11:57:58.940Z,30.25
2022-12-15T12:00:28.245Z,31.17
2022-12-15T12:03:01.672Z,32.53
2022-12-15T12:05:56.685Z,29.67
2022-12-15T12:08:34.143Z,31.50
2022-12-15T12:11:06.258Z,30.30
2022-12-15T12:13:39.259Z,29.10
2022-12-15T12:16:12.511Z,30.33
2022-12-15T12:18:41.308Z,30.08
2022-12-15T12:21:10.299Z,30.67
2022-12-15T12:23:59.159Z,30.35
2022-12-15T12:26:29.830Z,29.88
2022-12-15T12:29:18.547Z,28.75
2022-12-15T12:32:05.197Z,29.25
2022-12-15T12:34:36.456Z,29.15
2022-12-15T12:37:17.707Z,29.98
2022-12-15T12:39:45.779Z,28.95
2022-12-15T12:42:16.415Z,28.00
2022-12-15T12:44:44.652Z,30.25
2022-12-15T12:47:16.247Z,29.55
2022-12-15T12:49:45.305Z,29.38
2022-12-15T12:52:20.780Z,29.92
2022-12-15T12:55:00.179Z,30.08
2022-12-15T12:57:36.078Z,30.25
2022-12-15T13:00:07.184Z,28.15
2022-12-15T13:02:50.459Z,29.37
2022-12-15T13:05:29.625Z,30.83
2022-12-15T13:07:58.441Z,33.30
2022-12-15T13:10:26.896Z,30.03
2022-12-15T13:12:55.022Z,30.73
2022-12-15T13:15:35.325Z,31.20
2022-12-15T13:18:09.180Z,31.43
2022-12-15T13:20:37.520Z,31.57
2022-12-15T13:23:41.812Z,32.60
2022-12-15T13:26:13.982Z,34.47
2022-12-15T13:28:46.029Z,33.20
2022-12-15T13:31:43.638Z,32.43
2022-12-15T13:34:30.953Z,29.43
2022-12-15T13:37:02.159Z,26.23
2022-12-15T13:39:37.345Z,25.83
2022-12-15T13:42:38.448Z,32.13
2022-12-15T13:45:36.665Z,27.57
2022-12-15T13:48:14.512Z,26.83
2022-12-15T13:50:51.228Z,30.43
2022-12-15T13:53:22.145Z,25.97
2022-12-15T13:55:58.583Z,26.97
2022-12-15T13:58:26.845Z,25.50
2022-12-15T14:00:56.937Z,28.90
2022-12-15T14:03:25.125Z,30.60
2022-12-15T14:05:55.355Z,33.07
2022-12-15T14:08:24.177Z,29.60
2022-12-15T14:10:53.096Z,29.87
2022-12-15T14:13:22.995Z,29.63
2022-12-15T14:15:53.592Z,29.10
2022-12-15T14:18:24.919Z,32.83
2022-12-15T14:20:54.418Z,29.13
2022-12-15T14:23:23.023Z,37.70
2022-12-15T14:25:55.256Z,35.83
2022-12-15T14:28:27.750Z,36.60
2022-12-15T14:30:55.577Z,34.33
2022-12-15T14:33:28.095Z,35.23
2022-12-15T14:35:59.108Z,31.20
2022-12-15T14:38:28.889Z,31.17
2022-12-15T14:40:57.802Z,35.03
2022-12-15T14:43:27.332Z,31.70
2022-12-15T14:45:56.113Z,34.33
2022-12-15T14:48:41.070Z,32.97
2022-12-15T14:51:12.140Z,36.37
2022-12-15T14:53:41.191Z,37.87
2022-12-15T14:56:29.429Z,32.70
2022-12-15T14:59:00.471Z,38.37
2022-12-15T15:01:29.835Z,32.00
2022-12-15T15:04:00.420Z,35.70
2022-12-15T15:06:33.802Z,35.70
2022-12-15T15:09:17.960Z,42.60
2022-12-15T15:11:45.755Z,37.37
2022-12-15T15:14:14.840Z,40.63
2022-12-15T15:16:42.999Z,35.23
2022-12-15T15:19:16.228Z,39.50
2022-12-15T15:21:46.795Z,37.17
2022-12-15T15:24:26.582Z,34.97
2022-12-15T15:26:56.409Z,33.97
2022-12-15T15:29:38.845Z,39.10
2022-12-15T15:32:08.506Z,33.93
2022-12-15T15:34:37.526Z,35.83
2022-12-15T15:37:07.463Z,42.37
2022-12-15T15:39:35.284Z,40.97
2022-12-15T15:42:07.474Z,41.93
2022-12-15T15:44:35.374Z,39.40
2022-12-15T15:47:03.391Z,38.43
2022-12-15T15:49:37.640Z,37.30
2022-12-15T15:52:10.540Z,39.17
2022-12-15T15:54:38.309Z,37.33
2022-12-15T15:57:06.268Z,33.13
2022-12-15T15:59:34.158Z,35.67
2022-12-15T16:02:02.917Z,35.50
2022-12-15T16:04:31.874Z,40.07
2022-12-15T16:06:59.877Z,33.57
2022-12-15T16:09:29.001Z,38.80
2022-12-15T16:11:57.084Z,35.00
2022-12-15T16:14:25.304Z,37.30
2022-12-15T16:16:54.695Z,34.83
2022-12-15T16:19:23.975Z,29.87
2022-12-15T16:21:53.412Z,31.53
2022-12-15T16:24:21.479Z,33.30
2022-12-15T16:26:50.966Z,34.90
2022-12-15T16:29:19.991Z,38.63
2022-12-15T16:31:48.292Z,34.60
2022-12-15T16:34:17.691Z,31.67
2022-12-15T16:36:45.733Z,35.07
2022-12-15T16:39:24.378Z,34.10
2022-12-15T16:41:53.791Z,32.40
2022-12-15T16:44:22.153Z,31.87
2022-12-15T16:46:50.072Z,28.33
2022-12-15T16:49:17.919Z,30.80
2022-12-15T16:51:46.773Z,30.50
2022-12-15T16:54:17.181Z,35.07
2022-12-15T16:56:45.161Z,27.47
2022-12-15T16:59:32.705Z,33.57
2022-12-15T17:02:02.236Z,33.67
2022-12-15T17:04:30.390Z,34.23
2022-12-15T17:06:58.331Z,31.97
2022-12-15T17:09:29.371Z,35.00
2022-12-15T17:11:57.349Z,36.87
2022-12-15T17:14:26.671Z,37.57
2022-12-15T17:16:54.946Z,36.43
2022-12-15T17:19:23.765Z,36.53
2022-12-15T17:21:53.056Z,38.97
2022-12-15T17:24:22.416Z,43.23
2022-12-15T17:26:50.391Z,40.20
2022-12-15T17:29:20.063Z,39.00
2022-12-15T17:31:49.182Z,39.67
2022-12-15T17:34:28.412Z,39.13
2022-12-15T17:36:56.266Z,37.03
2022-12-15T17:39:24.907Z,36.50
2022-12-15T17:42:02.046Z,43.23
2022-12-15T17:44:34.931Z,43.10
2022-12-15T17:47:06.269Z,46.17
2022-12-15T17:49:36.838Z,38.67
2022-12-15T17:52:07.233Z,44.43
2022-12-15T17:54:35.563Z,46.50
2022-12-15T17:57:03.524Z,42.20
2022-12-15T17:59:33.087Z,50.07
2022-12-15T18:02:01.741Z,46.60
2022-12-15T18:04:31.904Z,46.47
2022-12-15T18:07:02.302Z,42.83
2022-12-15T18:09:33.573Z,57.57
2022-12-15T18:12:02.695Z,43.43
2022-12-15T18:14:31.290Z,45.57
2022-12-15T18:17:06.468Z,45.23
2022-12-15T18:19:55.389Z,50.13
2022-12-15T18:22:24.431Z,45.90
2022-12-15T18:24:53.699Z,48.33
2022-12-15T18:27:23.957Z,39.50
2022-12-15T18:29:52.373Z,36.00
2022-12-15T18:32:20.439Z,42.67
2022-12-15T18:34:59.140Z,42.87
2022-12-15T18:37:29.062Z,41.53
2022-12-15T18:40:02.536Z,37.23
2022-12-15T18:42:32.542Z,40.43
2022-12-15T18:45:05.112Z,42.23
2022-12-15T18:47:33.809Z,56.20
2022-12-15T18:50:03.055Z,38.30
2022-12-15T18:52:34.632Z,41.17
2022-12-15T18:55:03.014Z,42.03
2022-12-15T18:57:32.404Z,37.87
2022-12-15T19:00:04.394Z,37.37
2022-12-15T19:02:32.388Z,40.13
2022-12-15T19:05:00.518Z,37.23
2022-12-15T19:07:29.756Z,37.67
2022-12-15T19:09:57.769Z,38.53
2022-12-15T19:12:25.775Z,44.80
2022-12-15T19:14:55.158Z,37.87
2022-12-15T19:17:41.647Z,39.87
2022-12-15T19:20:34.110Z,42.17
2022-12-15T19:23:03.307Z,43.30
2022-12-15T19:25:31.295Z,43.00
2022-12-15T19:27:59.934Z,43.20
2022-12-15T19:30:28.402Z,39.37
2022-12-15T19:32:56.461Z,37.67
2022-12-15T19:35:24.849Z,41.83
2022-12-15T19:37:55.178Z,37.00
2022-12-15T19:40:27.668Z,39.87
2022-12-15T19:42:56.110Z,40.27
2022-12-15T19:45:25.222Z,43.53
2022-12-15T19:47:53.431Z,38.17
2022-12-15T19:50:22.819Z,38.87
2022-12-15T19:52:51.550Z,38.73
2022-12-15T19:55:22.062Z,39.67
2022-12-15T19:57:51.327Z,42.87
2022-12-15T20:00:22.479Z,35.37
2022-12-15T20:02:51.692Z,41.40
2022-12-15T20:05:19.922Z,37.40
2022-12-15T20:07:47.913Z,34.90
2022-12-15T20:10:24.356Z,43.13
2022-12-15T20:12:55.784Z,40.33
2022-12-15T20:15:25.040Z,40.23
2022-12-15T20:17:56.753Z,41.17
2022-12-15T20:20:25.619Z,40.07
2022-12-15T20:22:55.699Z,37.87
2022-12-15T20:25:27.402Z,36.50
2022-12-15T20:27:56.809Z,39.00
2022-12-15T20:30:26.514Z,43.40
2022-12-15T20:32:54.703Z,44.70
2022-12-15T20:35:22.842Z,45.63
2022-12-15T20:37:50.779Z,48.97
2022-12-15T20:40:18.971Z,40.53
2022-12-15T20:42:46.667Z,45.60
2022-12-15T20:45:16.622Z,44.17
2022-12-15T20:47:45.891Z,44.97
2022-12-15T20:50:25.567Z,42.63
2022-12-15T20:52:55.032Z,42.17
2022-12-15T20:55:23.115Z,44.80
2022-12-15T20:57:51.193Z,41.53
2022-12-15T21:00:20.711Z,42.37
2022-12-15T21:02:48.908Z,40.17
2022-12-15T21:05:18.934Z,40.50
2022-12-15T21:07:47.671Z,44.37
2022-12-15T21:10:16.104Z,42.37
2022-12-15T21:12:44.794Z,40.80
2022-12-15T21:15:16.397Z,40.63
2022-12-15T21:17:45.813Z,37.97
2022-12-15T21:20:14.022Z,43.60
2022-12-15T21:22:41.947Z,45.93
2022-12-15T21:25:17.780Z,44.40
2022-12-15T21:27:46.085Z,37.73
2022-12-15T21:30:18.081Z,44.83
2022-12-15T21:32:47.696Z,38.20
2022-12-15T21:35:16.199Z,37.37
2022-12-15T21:37:44.302Z,40.67
2022-12-15T21:40:18.012Z,40.00
2022-12-15T21:42:46.012Z,36.57
2022-12-15T21:45:15.816Z,38.20
2022-12-15T21:48:01.272Z,38.73
2022-12-15T21:50:30.570Z,41.40
2022-12-15T21:52:58.578Z,35.57
2022-12-15T21:55:27.779Z,40.43
2022-12-15T21:57:55.718Z,37.50
2022-12-15T22:00:25.176Z,40.33
2022-12-15T22:02:53.391Z,40.83
2022-12-15T22:05:22.478Z,40.47
2022-12-15T22:07:51.674Z,39.40
2022-12-15T22:10:19.652Z,38.77
2022-12-15T22:12:53.397Z,38.83
2022-12-15T22:15:26.884Z,37.50
2022-12-15T22:17:55.120Z,40.60
2022-12-15T22:20:24.092Z,40.10
2022-12-15T22:22:53.108Z,40.17
2022-12-15T22:25:22.059Z,33.97
2022-12-15T22:27:49.786Z,37.10
2022-12-15T22:30:20.496Z,33.20
2022-12-15T22:32:48.331Z,34.40
2022-12-15T22:35:16.855Z,35.87
2022-12-15T22:37:44.861Z,37.40
2022-12-15T22:40:14.511Z,36.43
2022-12-15T22:42:43.377Z,44.03
2022-12-15T22:45:15.272Z,43.00
2022-12-15T22:47:43.152Z,37.83
2022-12-15T22:50:15.575Z,42.80
2022-12-15T22:52:45.478Z,35.53
2022-12-15T22:55:16.691Z,37.83
2022-12-15T22:57:45.652Z,36.90
2022-12-15T23:00:13.965Z,50.33
2022-12-15T23:02:42.848Z,38.10
2022-12-15T23:05:11.017Z,36.93
2022-12-15T23:07:38.697Z,40.87
2022-12-15T23:10:21.310Z,37.63
2022-12-15T23:12:54.285Z,37.70
2022-12-15T23:15:40.576Z,35.33
2022-12-15T23:18:08.415Z,41.37
2022-12-15T23:20:36.254Z,37.10
2022-12-15T23:23:04.512Z,38.47
2022-12-15T23:25:32.264Z,36.63
2022-12-15T23:28:01.314Z,33.10
2022-12-15T23:30:29.171Z,33.40
2022-12-15T23:32:56.818Z,38.67
2022-12-15T23:35:24.602Z,37.37
2022-12-15T23:37:52.257Z,34.87
2022-12-15T23:40:22.015Z,34.73
2022-12-15T23:42:50.902Z,34.00
2022-12-15T23:45:21.463Z,38.10
2022-12-15T23:47:49.214Z,34.17
2022-12-15T23:50:17.186Z,33.30
2022-12-15T23:52:44.874Z,34.53
2022-12-15T23:55:12.602Z,35.70
2022-12-15T23:57:40.479Z,32.80
